Time;durP1;ratioP1;P1;durP2;ratioP2;P2;SDS_P1;SDS_P2;PMS_P1;PMS_P2;Temp;Humidity;BMP_temperature;BMP_pressure;BME280_temperature;BME280_humidity;BME280_pressure;Samples;Min_cycle;Max_cycle;Signal;HPM_P1;HPM_P2
2021/03/18 00:01:23;;;;;;;15.82;8.63;;;3.90;89.60;;;;;;5031106;28;20106;-67
2021/03/18 00:03:50;;;;;;;16.77;9.88;;;3.80;89.60;;;;;;5050450;28;20035;-67
2021/03/18 00:06:16;;;;;;;14.65;9.30;;;3.80;89.70;;;;;;5049839;28;20079;-67
2021/03/18 00:08:44;;;;;;;15.18;9.93;;;3.80;89.70;;;;;;5031395;28;20390;-66
2021/03/18 00:11:15;;;;;;;20.73;10.95;;;3.80;89.90;;;;;;5051023;28;20033;-67
2021/03/18 00:13:42;;;;;;;17.02;9.65;;;3.90;89.90;;;;;;5050377;28;20029;-66
2021/03/18 00:16:08;;;;;;;19.27;10.70;;;3.90;89.70;;;;;;5050209;28;20036;-67
2021/03/18 00:18:43;;;;;;;15.30;9.80;;;3.80;90.00;;;;;;5052961;28;20029;-66
2021/03/18 00:21:09;;;;;;;19.15;10.05;;;3.80;90.10;;;;;;5050247;28;20028;-66
2021/03/18 00:23:35;;;;;;;16.02;10.77;;;3.80;90.10;;;;;;5049574;28;20060;-66
2021/03/18 00:26:02;;;;;;;15.90;10.15;;;3.80;90.10;;;;;;5050572;28;20033;-66
2021/03/18 00:28:29;;;;;;;20.80;11.02;;;3.80;90.10;;;;;;5049082;28;20033;-66
2021/03/18 00:30:58;;;;;;;16.65;10.02;;;3.80;90.20;;;;;;5052989;28;20039;-66
2021/03/18 00:33:24;;;;;;;16.05;10.77;;;3.80;90.10;;;;;;5051184;28;20029;-66
2021/03/18 00:35:50;;;;;;;14.93;10.63;;;3.80;90.20;;;;;;5047346;28;20033;-66
2021/03/18 00:38:16;;;;;;;17.85;11.80;;;3.80;90.20;;;;;;5050755;28;20090;-66
2021/03/18 00:40:46;;;;;;;18.60;11.98;;;3.70;90.40;;;;;;5049946;28;20107;-66
2021/03/18 00:43:14;;;;;;;19.40;11.95;;;3.70;90.50;;;;;;5049517;28;20490;-66
2021/03/18 00:45:43;;;;;;;17.35;11.23;;;3.70;90.60;;;;;;5049137;28;20453;-66
2021/03/18 00:48:12;;;;;;;18.30;12.00;;;3.70;90.50;;;;;;5050161;28;20494;-66
2021/03/18 00:50:42;;;;;;;17.10;11.40;;;3.80;90.70;;;;;;5050029;28;20036;-67
2021/03/18 00:53:11;;;;;;;16.40;10.52;;;3.70;90.70;;;;;;5048473;28;20095;-66
2021/03/18 00:55:37;;;;;;;20.08;12.30;;;3.70;90.60;;;;;;5050054;28;20083;-66
2021/03/18 00:58:03;;;;;;;20.73;12.70;;;3.70;90.90;;;;;;5050138;28;20516;-66
2021/03/18 01:00:38;;;;;;;18.63;12.18;;;3.60;90.90;;;;;;5049903;28;20033;-66
2021/03/18 01:03:05;;;;;;;21.85;12.00;;;3.60;91.00;;;;;;5048594;28;20029;-66
2021/03/18 01:05:33;;;;;;;18.70;12.40;;;3.60;90.90;;;;;;5049205;28;20494;-66
2021/03/18 01:07:59;;;;;;;21.20;12.27;;;3.60;90.80;;;;;;5048847;28;20067;-66
2021/03/18 01:10:29;;;;;;;19.92;12.45;;;3.60;90.90;;;;;;5030617;28;20367;-66
2021/03/18 01:12:54;;;;;;;19.40;11.95;;;3.60;90.90;;;;;;5049828;28;20816;-66
2021/03/18 01:15:23;;;;;;;20.30;12.05;;;3.50;91.00;;;;;;5049465;28;20037;-66
2021/03/18 01:17:49;;;;;;;19.58;12.27;;;3.50;91.00;;;;;;5047875;28;20564;-66
2021/03/18 01:20:15;;;;;;;16.48;10.57;;;3.50;90.90;;;;;;5049766;28;20029;-66
2021/03/18 01:22:44;;;;;;;19.05;11.18;;;3.50;90.90;;;;;;5048856;28;20032;-66
2021/03/18 01:25:11;;;;;;;20.30;11.70;;;3.50;91.00;;;;;;5049240;28;20410;-66
2021/03/18 01:27:38;;;;;;;17.25;12.05;;;3.50;91.10;;;;;;5050409;28;20029;-66
2021/03/18 01:30:16;;;;;;;24.88;12.68;;;3.50;91.20;;;;;;5049745;28;20099;-66
2021/03/18 01:32:42;;;;;;;25.45;13.00;;;3.40;91.20;;;;;;5047538;28;20029;-67
2021/03/18 01:35:13;;;;;;;20.60;12.07;;;3.40;91.30;;;;;;5030392;28;20032;-66
2021/03/18 01:37:39;;;;;;;22.15;13.52;;;3.40;91.20;;;;;;5048547;28;20079;-66
2021/03/18 01:40:07;;;;;;;19.98;13.10;;;3.40;91.30;;;;;;5049001;28;20534;-66
2021/03/18 01:42:33;;;;;;;23.30;14.27;;;3.40;91.20;;;;;;5047407;28;20107;-66
2021/03/18 01:44:59;;;;;;;22.77;13.25;;;3.40;91.20;;;;;;5049027;28;20558;-66
2021/03/18 01:47:24;;;;;;;22.08;13.32;;;3.40;91.40;;;;;;5048861;28;20111;-66
2021/03/18 01:49:50;;;;;;;22.17;13.77;;;3.40;91.30;;;;;;5027630;28;20120;-66
2021/03/18 01:52:16;;;;;;;22.08;13.43;;;3.40;91.20;;;;;;5043452;28;20048;-66
2021/03/18 01:54:42;;;;;;;21.75;12.75;;;3.40;91.10;;;;;;5049507;28;20025;-66
2021/03/18 01:57:07;;;;;;;21.60;12.82;;;3.30;91.20;;;;;;5030692;28;20121;-66
2021/03/18 01:59:33;;;;;;;19.45;13.05;;;3.30;91.10;;;;;;5048765;28;20029;-66
2021/03/18 02:01:59;;;;;;;21.00;12.85;;;3.30;91.30;;;;;;5048681;28;20489;-66
2021/03/18 02:04:25;;;;;;;23.38;14.25;;;3.20;91.30;;;;;;5053855;28;20029;-66
2021/03/18 02:06:51;;;;;;;25.13;15.57;;;3.20;91.50;;;;;;5052450;28;20079;-66
2021/03/18 02:09:16;;;;;;;26.63;15.00;;;3.20;91.80;;;;;;5053545;28;20035;-66
2021/03/18 02:11:42;;;;;;;30.25;15.80;;;3.20;91.60;;;;;;5051498;28;20126;-66
2021/03/18 02:14:08;;;;;;;25.50;15.05;;;3.20;91.90;;;;;;5053717;28;20063;-66
2021/03/18 02:16:39;;;;;;;29.67;16.60;;;3.20;91.70;;;;;;5052850;28;20067;-66
2021/03/18 02:19:12;;;;;;;26.55;15.15;;;3.20;92.20;;;;;;5034945;28;20033;-65
2021/03/18 02:21:38;;;;;;;27.17;16.33;;;3.10;92.10;;;;;;5051330;28;20487;-66
2021/03/18 02:24:17;;;;;;;26.10;14.60;;;3.10;92.00;;;;;;5045451;28;20029;-66
2021/03/18 02:27:16;;;;;;;29.85;16.42;;;3.10;92.00;;;;;;5043765;28;20025;-66
2021/03/18 02:30:26;;;;;;;28.67;15.40;;;3.10;92.10;;;;;;5052092;28;20033;-66
2021/03/18 02:33:04;;;;;;;26.52;15.38;;;3.10;92.10;;;;;;5052238;28;20502;-66
2021/03/18 02:35:42;;;;;;;24.75;14.45;;;3.10;92.00;;;;;;5051286;28;20029;-66
2021/03/18 02:38:18;;;;;;;31.20;15.65;;;3.10;91.80;;;;;;5048851;28;20064;-67
2021/03/18 02:40:59;;;;;;;22.55;13.48;;;3.10;91.90;;;;;;5053141;28;20112;-66
2021/03/18 02:43:28;;;;;;;22.70;13.40;;;3.00;91.80;;;;;;5052116;28;20033;-66
2021/03/18 02:46:00;;;;;;;22.35;13.68;;;3.00;91.90;;;;;;5052573;28;20053;-66
2021/03/18 02:48:33;;;;;;;25.00;13.50;;;3.00;91.90;;;;;;5051933;28;20035;-66
2021/03/18 02:50:59;;;;;;;24.58;13.30;;;3.00;92.00;;;;;;5052342;28;20363;-66
2021/03/18 02:53:29;;;;;;;24.17;12.93;;;3.00;91.90;;;;;;5051807;28;20045;-66
2021/03/18 02:55:58;;;;;;;24.17;13.38;;;3.00;91.90;;;;;;5042883;28;20059;-66
2021/03/18 02:58:27;;;;;;;22.60;12.90;;;2.90;91.90;;;;;;5050421;28;20412;-66
2021/03/18 03:00:56;;;;;;;17.70;10.50;;;2.90;91.80;;;;;;5051218;28;20100;-66
2021/03/18 03:03:23;;;;;;;18.48;9.40;;;2.90;91.50;;;;;;5051776;28;20040;-66
2021/03/18 03:05:54;;;;;;;14.98;9.85;;;2.80;91.60;;;;;;5051803;28;20060;-66
2021/03/18 03:08:26;;;;;;;16.60;9.15;;;2.70;91.40;;;;;;5051677;28;20032;-65
2021/03/18 03:10:56;;;;;;;16.17;8.63;;;2.70;91.20;;;;;;5051269;28;20037;-66
2021/03/18 03:13:22;;;;;;;25.15;8.63;;;2.60;91.30;;;;;;5050228;28;20098;-65
2021/03/18 03:15:55;;;;;;;12.50;8.63;;;2.60;91.30;;;;;;5052748;28;20075;-66
2021/03/18 03:18:22;;;;;;;13.75;7.82;;;2.50;91.30;;;;;;5052317;28;20383;-66
2021/03/18 03:20:54;;;;;;;15.68;7.43;;;2.40;91.60;;;;;;5049739;28;20475;-66
2021/03/18 03:23:23;;;;;;;16.10;7.60;;;2.30;91.70;;;;;;5050751;28;20025;-66
2021/03/18 03:25:50;;;;;;;21.92;8.35;;;2.30;91.50;;;;;;5073271;22;20033;-69
2021/03/18 03:28:16;;;;;;;11.23;7.25;;;2.20;91.90;;;;;;5051901;28;20025;-70
2021/03/18 03:30:45;;;;;;;12.73;8.48;;;2.20;91.70;;;;;;5051961;28;20048;-68
2021/03/18 03:33:11;;;;;;;16.15;8.95;;;2.20;91.80;;;;;;5051429;28;20044;-67
2021/03/18 03:35:38;;;;;;;19.77;9.70;;;2.30;91.70;;;;;;5049722;28;20044;-67
2021/03/18 03:38:05;;;;;;;18.65;9.30;;;2.20;91.90;;;;;;5049967;28;20037;-68
2021/03/18 03:40:31;;;;;;;15.77;9.23;;;2.20;91.70;;;;;;5050892;28;20486;-67
2021/03/18 03:42:57;;;;;;;16.10;9.65;;;2.20;91.70;;;;;;5050780;28;20099;-67
2021/03/18 03:45:23;;;;;;;14.88;9.23;;;2.20;91.70;;;;;;5051250;28;20025;-69
2021/03/18 03:47:48;;;;;;;21.33;10.63;;;2.30;91.70;;;;;;5050914;28;20028;-69
2021/03/18 03:50:18;;;;;;;26.33;10.40;;;2.30;91.90;;;;;;5049832;28;20037;-70
2021/03/18 03:52:52;;;;;;;16.25;9.95;;;2.30;91.50;;;;;;5049753;28;20079;-69
2021/03/18 03:55:36;;;;;;;14.60;8.90;;;2.20;91.80;;;;;;5050510;28;20048;-70
2021/03/18 03:58:31;;;;;;;17.63;10.65;;;2.20;91.90;;;;;;5050531;28;20071;-69
2021/03/18 04:01:00;;;;;;;19.77;9.93;;;2.20;92.00;;;;;;5049940;28;20399;-69
2021/03/18 04:03:26;;;;;;;22.10;9.90;;;2.20;91.90;;;;;;5050915;28;20039;-67
2021/03/18 04:05:57;;;;;;;25.08;9.50;;;2.20;91.80;;;;;;5048011;28;20033;-68
2021/03/18 04:08:25;;;;;;;23.48;10.75;;;2.10;91.80;;;;;;5050472;28;20109;-68
2021/03/18 04:10:52;;;;;;;31.52;10.48;;;2.10;92.10;;;;;;5048204;28;20033;-68
2021/03/18 04:13:19;;;;;;;16.70;9.40;;;2.10;92.40;;;;;;5050499;28;20458;-67
2021/03/18 04:15:47;;;;;;;22.35;10.48;;;2.10;92.30;;;;;;5048335;28;20107;-68
2021/03/18 04:18:15;;;;;;;19.00;9.70;;;2.10;92.30;;;;;;5050523;28;20074;-69
2021/03/18 04:20:43;;;;;;;17.15;9.13;;;2.10;92.60;;;;;;5051136;28;20068;-68
2021/03/18 04:23:11;;;;;;;16.55;8.65;;;2.10;92.70;;;;;;5049647;28;20086;-69
2021/03/18 04:25:39;;;;;;;17.58;10.13;;;2.10;92.70;;;;;;5051106;28;20067;-68
2021/03/18 04:28:09;;;;;;;19.02;9.55;;;2.10;92.80;;;;;;5048687;28;20034;-68
2021/03/18 04:30:38;;;;;;;17.65;9.52;;;2.20;92.90;;;;;;5050713;28;20033;-68
2021/03/18 04:33:04;;;;;;;16.85;9.15;;;2.20;92.80;;;;;;5051835;28;20100;-68
2021/03/18 04:35:31;;;;;;;13.90;8.05;;;2.20;92.80;;;;;;5051981;28;20017;-70
2021/03/18 04:38:00;;;;;;;19.40;10.20;;;2.20;92.70;;;;;;5048766;28;20681;-69
2021/03/18 04:40:26;;;;;;;17.67;10.05;;;2.30;92.80;;;;;;5052129;28;20783;-69
2021/03/18 04:42:52;;;;;;;18.55;9.80;;;2.30;92.70;;;;;;5051747;28;20044;-68
2021/03/18 04:45:22;;;;;;;17.45;8.85;;;2.30;93.00;;;;;;5048137;28;20518;-69
2021/03/18 04:47:49;;;;;;;22.67;8.90;;;2.30;92.90;;;;;;5049311;28;20032;-68
2021/03/18 04:50:22;;;;;;;19.67;8.55;;;2.40;92.80;;;;;;5051733;28;20048;-69
2021/03/18 04:52:50;;;;;;;17.90;9.00;;;2.40;93.00;;;;;;5051080;28;20390;-69
2021/03/18 04:55:18;;;;;;;19.73;10.20;;;2.40;92.90;;;;;;5051191;28;20029;-69
2021/03/18 04:57:49;;;;;;;16.92;9.27;;;2.30;93.30;;;;;;5050718;28;20027;-68
2021/03/18 05:00:18;;;;;;;18.00;9.07;;;2.30;93.30;;;;;;5048614;28;20025;-71
2021/03/18 05:02:44;;;;;;;20.48;9.23;;;2.40;93.30;;;;;;5049542;28;20020;-68
2021/03/18 05:05:14;;;;;;;20.08;10.02;;;2.40;93.40;;;;;;5050660;28;20100;-69
2021/03/18 05:07:41;;;;;;;21.63;10.20;;;2.30;93.50;;;;;;5048944;28;20083;-69
2021/03/18 05:10:08;;;;;;;18.17;10.32;;;2.40;93.60;;;;;;5051720;28;20043;-70
2021/03/18 05:12:36;;;;;;;21.38;10.52;;;2.40;93.80;;;;;;5049560;28;20072;-69
2021/03/18 05:15:02;;;;;;;17.30;9.52;;;2.40;93.80;;;;;;5048518;28;20656;-69
2021/03/18 05:17:28;;;;;;;24.00;9.60;;;2.40;93.60;;;;;;5048662;28;20029;-69
2021/03/18 05:19:54;;;;;;;25.85;9.98;;;2.40;93.60;;;;;;5050707;28;20389;-69
2021/03/18 05:22:21;;;;;;;28.02;11.63;;;2.40;93.80;;;;;;5048931;28;20462;-69
2021/03/18 05:24:48;;;;;;;21.83;11.20;;;2.50;93.70;;;;;;5050831;28;20029;-68
2021/03/18 05:27:14;;;;;;;22.50;10.95;;;2.50;93.70;;;;;;5049514;28;20024;-69
2021/03/18 05:29:39;;;;;;;29.20;12.77;;;2.50;93.90;;;;;;5050660;28;20432;-69
2021/03/18 05:32:09;;;;;;;23.77;10.63;;;2.40;94.00;;;;;;5049462;28;20056;-68
2021/03/18 05:34:34;;;;;;;23.77;11.45;;;2.40;94.00;;;;;;5045901;28;20056;-69
2021/03/18 05:37:00;;;;;;;25.25;10.75;;;2.50;94.20;;;;;;5048986;28;20121;-70
2021/03/18 05:39:26;;;;;;;29.20;10.65;;;2.40;94.10;;;;;;5051769;28;20021;-69
2021/03/18 05:41:52;;;;;;;33.33;12.93;;;2.50;94.10;;;;;;5055844;28;20083;-68
2021/03/18 05:44:18;;;;;;;28.58;12.18;;;2.40;94.20;;;;;;5056598;28;20519;-69
2021/03/18 05:46:44;;;;;;;24.95;10.32;;;2.40;94.20;;;;;;5055912;28;20479;-68
2021/03/18 05:49:12;;;;;;;29.45;12.20;;;2.40;94.10;;;;;;5054395;28;20044;-69
2021/03/18 05:51:43;;;;;;;28.38;12.20;;;2.40;94.10;;;;;;5052948;28;20048;-68
2021/03/18 05:54:10;;;;;;;27.55;12.55;;;2.40;94.30;;;;;;5057168;28;20024;-70
2021/03/18 05:56:38;;;;;;;37.05;12.50;;;2.40;94.30;;;;;;5057134;28;20032;-69
2021/03/18 05:59:05;;;;;;;30.27;12.27;;;2.40;94.20;;;;;;5060080;28;20025;-70
2021/03/18 06:01:30;;;;;;;29.92;13.68;;;2.40;94.30;;;;;;5058140;28;20017;-69
2021/03/18 06:03:57;;;;;;;36.08;13.57;;;2.40;94.30;;;;;;5057050;28;20046;-70
2021/03/18 06:06:24;;;;;;;30.65;12.43;;;2.40;94.30;;;;;;5055781;28;20037;-69
2021/03/18 06:08:50;;;;;;;26.95;12.02;;;2.40;94.10;;;;;;5057405;28;20418;-68
2021/03/18 06:11:15;;;;;;;27.10;12.60;;;2.40;94.10;;;;;;5057049;28;20666;-70
2021/03/18 06:13:41;;;;;;;39.47;13.27;;;2.40;94.10;;;;;;5055728;28;20025;-69
2021/03/18 06:16:08;;;;;;;31.33;13.18;;;2.50;94.30;;;;;;5057120;28;20082;-70
2021/03/18 06:18:35;;;;;;;26.80;12.75;;;2.50;94.10;;;;;;5056958;28;20029;-71
2021/03/18 06:21:06;;;;;;;25.90;12.63;;;2.50;94.30;;;;;;5057104;28;20021;-69
2021/03/18 06:23:35;;;;;;;23.15;11.90;;;2.50;94.30;;;;;;5055971;28;20023;-70
2021/03/18 06:26:02;;;;;;;30.45;13.40;;;2.50;94.30;;;;;;5053797;28;20029;-69
2021/03/18 06:28:35;;;;;;;37.08;14.55;;;2.50;94.30;;;;;;5055923;28;20067;-69
2021/03/18 06:31:04;;;;;;;27.25;12.68;;;2.60;94.20;;;;;;5056219;28;20044;-69
2021/03/18 06:33:48;;;;;;;25.85;12.25;;;2.60;94.20;;;;;;5055027;28;20020;-69
2021/03/18 06:36:27;;;;;;;25.23;12.25;;;2.60;94.30;;;;;;5054874;28;20540;-69
2021/03/18 06:39:09;;;;;;;33.67;14.43;;;2.60;94.30;;;;;;5053110;28;20020;-71
2021/03/18 06:41:38;;;;;;;40.25;14.80;;;2.60;94.50;;;;;;5051180;28;20025;-69
2021/03/18 06:44:16;;;;;;;32.28;13.77;;;2.60;94.50;;;;;;5053622;28;20032;-69
2021/03/18 06:46:42;;;;;;;30.88;12.77;;;2.70;94.40;;;;;;5051517;28;20035;-70
2021/03/18 06:49:12;;;;;;;28.70;13.70;;;2.70;94.50;;;;;;5054852;28;20033;-69
2021/03/18 06:51:39;;;;;;;29.30;13.47;;;2.70;94.40;;;;;;5045802;28;21671;-70
2021/03/18 06:54:19;;;;;;;28.40;12.98;;;2.70;94.50;;;;;;5045240;28;20156;-70
2021/03/18 06:56:55;;;;;;;27.98;12.38;;;2.70;94.70;;;;;;5042137;28;20091;-70
2021/03/18 06:59:26;;;;;;;29.45;12.93;;;2.70;94.70;;;;;;5043736;28;20037;-68
2021/03/18 07:02:11;;;;;;;32.45;12.73;;;2.70;94.70;;;;;;5045190;28;20025;-71
2021/03/18 07:04:43;;;;;;;32.50;14.23;;;2.80;94.70;;;;;;5040996;28;20033;-71
2021/03/18 07:07:10;;;;;;;26.05;11.63;;;2.80;94.70;;;;;;5041910;28;20029;-73
2021/03/18 07:09:38;;;;;;;32.90;12.93;;;2.90;94.70;;;;;;5043462;28;20477;-72
2021/03/18 07:12:07;;;;;;;28.63;13.50;;;2.90;94.60;;;;;;5047422;28;20104;-71
2021/03/18 07:14:39;;;;;;;26.85;12.15;;;2.90;94.50;;;;;;5044240;28;20024;-68
2021/03/18 07:17:05;;;;;;;31.35;13.15;;;3.00;94.60;;;;;;5044079;28;20908;-71
2021/03/18 07:19:31;;;;;;;29.02;13.00;;;3.00;94.50;;;;;;5048907;28;20021;-70
2021/03/18 07:21:59;;;;;;;25.35;11.73;;;3.00;94.50;;;;;;5045403;28;20028;-72
2021/03/18 07:24:26;;;;;;;25.63;11.68;;;3.10;94.60;;;;;;5049425;28;20040;-73
2021/03/18 07:26:53;;;;;;;26.88;11.15;;;3.10;94.60;;;;;;5051070;28;20382;-73
2021/03/18 07:29:22;;;;;;;22.92;10.98;;;3.10;94.50;;;;;;5054344;28;20097;-69
2021/03/18 07:31:49;;;;;;;21.58;10.00;;;3.20;94.40;;;;;;5047332;28;20040;-72
2021/03/18 07:34:21;;;;;;;23.88;10.70;;;3.20;94.10;;;;;;5045119;28;20426;-72
2021/03/18 07:36:47;;;;;;;26.90;11.77;;;3.30;94.20;;;;;;5047904;28;20044;-70
2021/03/18 07:39:14;;;;;;;26.38;11.13;;;3.20;94.30;;;;;;5049682;28;20048;-70
2021/03/18 07:41:44;;;;;;;23.80;11.40;;;3.20;94.40;;;;;;5049366;28;20025;-67
2021/03/18 07:44:13;;;;;;;29.35;11.93;;;3.20;94.50;;;;;;5064531;28;20021;-70
2021/03/18 07:46:39;;;;;;;25.75;11.45;;;3.30;94.50;;;;;;5045095;28;20041;-72
2021/03/18 07:49:14;;;;;;;29.52;12.20;;;3.30;94.50;;;;;;5047297;28;20036;-72
2021/03/18 07:51:42;;;;;;;27.00;12.35;;;3.30;94.30;;;;;;5042919;28;20032;-71
2021/03/18 07:54:12;;;;;;;25.00;11.27;;;3.30;94.40;;;;;;5047507;28;20086;-70
2021/03/18 07:56:43;;;;;;;24.52;11.23;;;3.30;94.40;;;;;;5049298;28;20033;-71
2021/03/18 07:59:09;;;;;;;30.75;12.38;;;3.30;94.40;;;;;;5047620;28;20077;-72
2021/03/18 08:01:36;;;;;;;22.33;10.88;;;3.30;94.50;;;;;;5040330;28;20098;-71
2021/03/18 08:04:04;;;;;;;30.17;11.73;;;3.40;94.40;;;;;;5045315;28;20029;-71
2021/03/18 08:06:39;;;;;;;23.90;9.50;;;3.40;94.40;;;;;;5045115;28;20516;-71
2021/03/18 08:09:05;;;;;;;27.05;9.85;;;3.40;94.40;;;;;;5050883;28;20074;-71
2021/03/18 08:11:46;;;;;;;25.38;10.43;;;3.40;94.40;;;;;;5048510;28;20482;-71
2021/03/18 08:14:20;;;;;;;25.87;10.50;;;3.50;94.30;;;;;;5051807;28;20094;-70
2021/03/18 08:16:46;;;;;;;22.60;10.25;;;3.50;94.20;;;;;;5042280;28;20052;-71
2021/03/18 08:19:13;;;;;;;25.98;10.95;;;3.50;94.20;;;;;;5040669;28;20650;-72
2021/03/18 08:21:44;;;;;;;24.27;10.48;;;3.60;94.20;;;;;;5048133;28;20025;-72
2021/03/18 08:24:16;;;;;;;24.65;10.48;;;3.60;94.10;;;;;;5046760;28;20104;-73
2021/03/18 08:27:11;;;;;;;30.00;11.95;;;3.70;94.10;;;;;;5039465;28;20037;-71
2021/03/18 08:29:41;;;;;;;25.70;11.20;;;3.70;94.00;;;;;;5045575;28;20036;-72
2021/03/18 08:32:25;;;;;;;22.98;9.57;;;3.60;94.00;;;;;;5042603;28;20548;-73
2021/03/18 08:34:55;;;;;;;24.05;11.15;;;3.60;94.10;;;;;;5048256;28;20028;-73
2021/03/18 08:37:38;;;;;;;29.33;12.10;;;3.70;94.00;;;;;;5040919;28;20021;-71
2021/03/18 08:40:22;;;;;;;28.70;11.90;;;3.70;94.00;;;;;;5042695;28;20527;-71
2021/03/18 08:42:48;;;;;;;30.83;11.85;;;3.70;94.10;;;;;;5048831;28;20025;-71
2021/03/18 08:45:20;;;;;;;27.42;12.07;;;3.70;94.40;;;;;;5049349;28;20036;-71
2021/03/18 08:47:47;;;;;;;24.90;11.05;;;3.70;94.20;;;;;;5048287;28;20100;-71
2021/03/18 08:50:25;;;;;;;26.50;11.05;;;3.70;93.90;;;;;;5040382;28;20036;-71
2021/03/18 08:52:58;;;;;;;25.65;11.05;;;3.80;93.90;;;;;;5048038;28;20057;-72
2021/03/18 08:55:44;;;;;;;20.00;10.18;;;3.70;94.00;;;;;;5048087;28;20083;-71
2021/03/18 08:58:11;;;;;;;28.52;10.48;;;3.80;94.00;;;;;;5047639;28;20398;-71
2021/03/18 09:00:42;;;;;;;22.15;10.48;;;3.80;93.90;;;;;;5038656;28;20041;-70
2021/03/18 09:03:26;;;;;;;22.35;9.90;;;3.80;93.80;;;;;;5043070;28;20558;-70
2021/03/18 09:05:55;;;;;;;23.27;9.30;;;3.90;93.50;;;;;;5041828;28;20033;-70
2021/03/18 09:08:25;;;;;;;21.98;9.80;;;3.90;93.60;;;;;;5048492;28;20025;-71
2021/03/18 09:10:52;;;;;;;20.98;9.23;;;3.90;93.60;;;;;;5047916;28;20025;-70
2021/03/18 09:13:22;;;;;;;15.70;8.57;;;4.00;93.40;;;;;;5041183;28;20033;-73
2021/03/18 09:15:52;;;;;;;17.77;8.63;;;4.10;93.00;;;;;;5038669;28;20577;-71
2021/03/18 09:18:29;;;;;;;17.42;8.15;;;4.10;92.90;;;;;;5042992;28;20021;-71
2021/03/18 09:21:01;;;;;;;15.43;7.72;;;4.20;93.00;;;;;;5058025;28;20037;-70
2021/03/18 09:23:36;;;;;;;13.90;6.97;;;4.20;92.90;;;;;;5039986;28;20025;-71
2021/03/18 09:26:04;;;;;;;13.63;6.85;;;4.20;92.90;;;;;;5039575;28;20025;-72
2021/03/18 09:28:38;;;;;;;16.35;8.18;;;4.20;92.90;;;;;;5045261;28;20028;-71
2021/03/18 09:31:08;;;;;;;14.02;6.30;;;4.30;92.50;;;;;;5061170;28;20037;-72
2021/03/18 09:33:35;;;;;;;12.85;6.63;;;4.30;92.30;;;;;;5048896;28;20029;-72
2021/03/18 09:36:17;;;;;;;12.68;7.25;;;4.30;92.30;;;;;;5044302;28;20040;-70
2021/03/18 09:39:13;;;;;;;13.18;6.80;;;4.40;92.20;;;;;;5047006;28;20032;-70
2021/03/18 09:41:43;;;;;;;17.08;6.72;;;4.40;92.10;;;;;;5041214;28;20573;-70
2021/03/18 09:44:13;;;;;;;14.35;7.68;;;4.40;91.40;;;;;;5045861;28;20029;-71
2021/03/18 09:46:51;;;;;;;11.30;6.95;;;4.50;91.30;;;;;;5043913;28;20033;-70
2021/03/18 09:49:33;;;;;;;17.75;8.10;;;4.50;91.30;;;;;;5041042;28;20455;-70
2021/03/18 09:52:03;;;;;;;;;;;4.50;91.50;;;;;;5044963;28;20564;-70
2021/03/18 09:54:29;;;;;;;14.43;7.20;;;4.50;91.30;;;;;;5050711;28;19908;-71
2021/03/18 09:57:00;;;;;;;18.38;7.93;;;4.60;91.20;;;;;;5049680;28;20112;-71
2021/03/18 09:59:27;;;;;;;11.68;7.00;;;4.60;91.30;;;;;;5043106;28;20037;-71
2021/03/18 10:01:53;;;;;;;16.77;7.15;;;4.60;91.30;;;;;;5040307;28;20033;-71
2021/03/18 10:04:20;;;;;;;15.40;7.88;;;4.70;91.20;;;;;;5043309;28;20025;-73
2021/03/18 10:06:53;;;;;;;14.18;7.40;;;4.70;91.10;;;;;;5042606;28;20032;-70
2021/03/18 10:09:31;;;;;;;13.02;6.82;;;4.70;91.20;;;;;;5048932;28;20100;-69
2021/03/18 10:12:05;;;;;;;18.17;8.43;;;4.70;91.20;;;;;;5048869;28;20037;-70
2021/03/18 10:14:40;;;;;;;13.60;7.97;;;4.70;90.90;;;;;;5046539;28;20044;-70
2021/03/18 10:17:09;;;;;;;13.85;6.60;;;4.70;91.00;;;;;;5041875;28;20520;-70
2021/03/18 10:19:57;;;;;;;14.98;6.85;;;4.80;90.70;;;;;;5040299;28;20036;-70
2021/03/18 10:22:41;;;;;;;13.40;7.38;;;4.80;90.80;;;;;;5045127;28;20400;-70
2021/03/18 10:25:09;;;;;;;14.68;7.70;;;4.80;91.00;;;;;;5046055;28;20029;-70
2021/03/18 10:27:39;;;;;;;17.40;8.43;;;4.90;91.10;;;;;;5048177;28;20034;-71
2021/03/18 10:30:09;;;;;;;13.13;7.13;;;5.00;90.80;;;;;;5050993;28;20039;-71
2021/03/18 10:32:35;;;;;;;15.05;7.05;;;5.00;90.90;;;;;;5049789;28;20552;-71
2021/03/18 10:35:02;;;;;;;12.25;6.53;;;5.10;90.40;;;;;;5051645;28;20064;-71
2021/03/18 10:37:42;;;;;;;17.88;6.75;;;5.00;90.30;;;;;;5052121;28;20033;-71
2021/03/18 10:40:42;;;;;;;15.77;7.70;;;5.10;90.20;;;;;;5051295;28;20031;-71
2021/03/18 10:43:38;;;;;;;11.70;7.30;;;5.30;88.30;;;;;;5051754;28;20031;-72
2021/03/18 10:46:06;;;;;;;13.85;7.43;;;5.40;88.50;;;;;;5041324;28;20041;-72
2021/03/18 10:48:36;;;;;;;14.20;7.65;;;5.40;89.20;;;;;;5052519;28;20028;-72
2021/03/18 10:51:10;;;;;;;14.32;7.35;;;5.50;87.00;;;;;;5052651;28;20033;-72
2021/03/18 10:53:38;;;;;;;12.32;6.80;;;5.40;88.00;;;;;;5053123;28;20108;-71
2021/03/18 10:56:05;;;;;;;13.15;5.95;;;5.40;87.10;;;;;;5050785;28;20039;-72
2021/03/18 10:58:32;;;;;;;10.88;7.50;;;5.30;88.00;;;;;;5051467;28;20017;-72
2021/03/18 11:01:03;;;;;;;13.52;7.35;;;5.30;88.10;;;;;;5049671;28;20406;-72
2021/03/18 11:03:34;;;;;;;17.40;8.50;;;5.30;88.00;;;;;;5052580;28;20017;-72
2021/03/18 11:06:12;;;;;;;9.52;6.65;;;5.30;88.10;;;;;;5052904;28;20102;-72
2021/03/18 11:08:41;;;;;;;13.25;7.07;;;5.40;87.10;;;;;;5050736;28;20028;-72
2021/03/18 11:11:19;;;;;;;9.23;6.53;;;5.40;86.80;;;;;;5053295;28;20056;-73
2021/03/18 11:13:46;;;;;;;10.63;6.53;;;5.50;85.30;;;;;;5053229;28;20533;-72
2021/03/18 11:16:23;;;;;;;11.63;6.50;;;5.70;86.80;;;;;;5049752;28;20029;-71
2021/03/18 11:18:55;;;;;;;14.05;6.97;;;5.90;85.90;;;;;;5048588;28;20029;-76
2021/03/18 11:21:25;;;;;;;10.63;6.13;;;6.20;84.20;;;;;;5050154;28;20052;-71
2021/03/18 11:24:03;;;;;;;11.05;5.68;;;6.50;86.50;;;;;;5049380;28;20039;-72
2021/03/18 11:26:32;;;;;;;7.60;4.80;;;7.80;81.50;;;;;;5051931;28;20120;-74
2021/03/18 11:29:05;;;;;;;7.30;5.28;;;9.00;75.70;;;;;;5049313;28;20040;-73
2021/03/18 11:31:35;;;;;;;7.65;5.00;;;9.80;72.30;;;;;;5054714;28;20029;-74
2021/03/18 11:34:31;;;;;;;8.13;5.03;;;10.50;66.20;;;;;;5051117;28;20031;-78
2021/03/18 11:37:01;;;;;;;7.70;4.75;;;10.50;67.80;;;;;;5047742;28;20033;-73
2021/03/18 11:39:27;;;;;;;7.25;4.30;;;10.30;68.40;;;;;;5047174;28;20522;-69
2021/03/18 11:41:55;;;;;;;6.88;5.00;;;9.90;70.50;;;;;;5050686;28;20025;-70
2021/03/18 11:44:22;;;;;;;7.35;4.57;;;10.30;67.30;;;;;;5050709;28;20082;-71
2021/03/18 11:46:48;;;;;;;5.95;4.45;;;10.30;68.30;;;;;;5052198;28;20047;-70
2021/03/18 11:49:14;;;;;;;8.40;4.85;;;10.50;68.40;;;;;;5052712;28;20025;-69
2021/03/18 11:51:39;;;;;;;8.23;5.55;;;10.30;69.50;;;;;;5052744;28;20599;-70
2021/03/18 11:54:06;;;;;;;10.85;5.43;;;10.10;68.90;;;;;;5049650;28;20041;-73
2021/03/18 11:56:32;;;;;;;7.47;5.00;;;9.90;68.90;;;;;;5049290;28;20797;-73
2021/03/18 11:58:58;;;;;;;6.22;4.28;;;9.70;69.70;;;;;;5049919;28;20115;-72
2021/03/18 12:01:24;;;;;;;9.35;4.60;;;9.60;68.70;;;;;;5049583;28;20552;-72
2021/03/18 12:03:50;;;;;;;6.13;4.82;;;9.50;69.20;;;;;;5047455;28;20036;-72
2021/03/18 12:06:16;;;;;;;9.07;5.50;;;9.20;69.00;;;;;;5050407;28;20032;-72
2021/03/18 12:08:42;;;;;;;12.95;5.40;;;8.80;70.50;;;;;;5050547;28;20207;-73
2021/03/18 12:11:08;;;;;;;6.53;4.50;;;8.50;69.80;;;;;;5051775;28;20108;-73
2021/03/18 12:13:36;;;;;;;8.00;4.43;;;8.30;69.90;;;;;;5049204;28;20033;-72
2021/03/18 12:16:03;;;;;;;7.28;4.15;;;8.00;71.10;;;;;;5049912;28;20043;-72
2021/03/18 12:18:29;;;;;;;6.45;4.05;;;7.70;71.90;;;;;;5050294;28;20512;-73
2021/03/18 12:20:55;;;;;;;9.57;5.18;;;7.50;73.20;;;;;;5047871;28;20045;-72
2021/03/18 12:23:21;;;;;;;7.72;4.18;;;7.30;73.50;;;;;;5050540;28;20078;-72
2021/03/18 12:25:47;;;;;;;6.53;3.80;;;7.10;74.20;;;;;;5049375;28;20041;-71
2021/03/18 12:28:13;;;;;;;6.43;4.13;;;7.00;75.20;;;;;;5045586;28;20028;-74
2021/03/18 12:30:41;;;;;;;5.72;4.10;;;6.80;75.80;;;;;;5047305;28;20033;-72
2021/03/18 12:33:07;;;;;;;9.38;4.00;;;6.70;76.50;;;;;;5050079;28;20359;-72
2021/03/18 12:35:33;;;;;;;7.15;3.50;;;6.70;76.00;;;;;;5047455;28;20471;-73
2021/03/18 12:37:59;;;;;;;6.15;3.30;;;6.60;75.80;;;;;;5042426;28;20047;-72
2021/03/18 12:40:25;;;;;;;6.47;3.70;;;6.60;75.60;;;;;;5044381;28;20029;-73
2021/03/18 12:42:52;;;;;;;5.80;3.08;;;6.50;76.00;;;;;;5046861;28;20436;-71
2021/03/18 12:45:19;;;;;;;5.35;3.17;;;6.40;75.80;;;;;;5046527;28;20425;-72
2021/03/18 12:47:45;;;;;;;7.75;5.35;;;6.30;75.50;;;;;;5046804;28;20037;-72
2021/03/18 12:50:18;;;;;;;7.82;5.60;;;6.30;76.10;;;;;;5048345;28;20104;-72
2021/03/18 12:52:44;;;;;;;18.23;12.35;;;6.20;75.50;;;;;;5050752;28;20864;-72
2021/03/18 12:55:11;;;;;;;53.60;23.52;;;6.10;76.20;;;;;;5048414;28;20033;-73
2021/03/18 12:57:39;;;;;;;38.92;14.52;;;6.10;76.60;;;;;;5050222;28;20028;-73